createdAt,value
2023-04-30T00:00:00.526Z,78.2
2023-04-30T00:01:00.532Z,78.1
2023-04-30T00:02:00.559Z,77.8
2023-04-30T00:03:00.594Z,77.8
2023-04-30T00:04:00.553Z,78.1
2023-04-30T00:05:00.514Z,77.8
2023-04-30T00:06:00.493Z,78.2
2023-04-30T00:07:00.483Z,78.1
2023-04-30T00:08:00.600Z,78.1
2023-04-30T00:09:00.487Z,77.8
2023-04-30T00:10:00.510Z,77.8
2023-04-30T00:11:00.525Z,77.8
2023-04-30T00:12:00.541Z,77.8
2023-04-30T00:13:00.502Z,78.1
2023-04-30T00:14:00.496Z,77.8
2023-04-30T00:15:00.537Z,77.8
2023-04-30T00:16:00.524Z,77.8
2023-04-30T00:17:00.539Z,77.8
2023-04-30T00:18:00.540Z,77.8
2023-04-30T00:19:00.514Z,78.1
2023-04-30T00:20:00.549Z,78.5
2023-04-30T00:21:00.514Z,78.4
2023-04-30T00:22:00.499Z,78.4
2023-04-30T00:23:00.514Z,78.4
2023-04-30T00:24:00.513Z,78.4
2023-04-30T00:25:00.513Z,78.4
2023-04-30T00:26:00.618Z,78.4
2023-04-30T00:27:00.510Z,78.4
2023-04-30T00:28:00.504Z,78.4
2023-04-30T00:29:00.509Z,78.4
2023-04-30T00:30:00.560Z,78.7
2023-04-30T00:31:00.507Z,79.1
2023-04-30T00:32:00.551Z,78.7
2023-04-30T00:33:00.547Z,79
2023-04-30T00:34:00.529Z,78.7
2023-04-30T00:35:00.527Z,79
2023-04-30T00:36:00.511Z,79
2023-04-30T00:37:00.523Z,79
2023-04-30T00:38:00.583Z,79
2023-04-30T00:39:00.529Z,79.6
2023-04-30T00:40:00.591Z,79.3
2023-04-30T00:41:00.524Z,79.3
2023-04-30T00:42:00.530Z,79.6
2023-04-30T00:43:00.539Z,79.6
2023-04-30T00:44:00.520Z,79.6
2023-04-30T00:45:00.535Z,79.6
2023-04-30T00:46:00.550Z,79.6
2023-04-30T00:47:00.550Z,79.9
2023-04-30T00:48:00.647Z,79.9
2023-04-30T00:49:00.627Z,80.2
2023-04-30T00:50:00.582Z,80.2
2023-04-30T00:51:00.591Z,80.2
2023-04-30T00:52:00.536Z,80.2
2023-04-30T00:53:00.571Z,80.2
2023-04-30T00:54:00.558Z,80.2
2023-04-30T00:55:00.527Z,80.5
2023-04-30T00:56:00.531Z,80.9
2023-04-30T00:57:00.537Z,80.9
2023-04-30T00:58:00.541Z,80.8
2023-04-30T00:59:00.540Z,80.9
2023-04-30T01:00:00.531Z,80.9
2023-04-30T01:01:00.823Z,80.9
2023-04-30T01:02:00.635Z,80.9
2023-04-30T01:03:00.633Z,80.9
2023-04-30T01:04:00.580Z,80.9
2023-04-30T01:05:00.794Z,80.9
2023-04-30T01:06:00.909Z,80.8
2023-04-30T01:07:00.828Z,81.2
2023-04-30T01:08:00.776Z,81.2
2023-04-30T01:09:00.915Z,81.2
2023-04-30T01:10:00.963Z,81.2
2023-04-30T01:11:00.902Z,81.5
2023-04-30T01:12:00.783Z,81.5
2023-04-30T01:13:00.840Z,81.2
2023-04-30T01:14:00.855Z,81.2
2023-04-30T01:15:00.771Z,80.9
2023-04-30T01:16:00.690Z,81.2
2023-04-30T01:17:00.613Z,80.9
2023-04-30T01:18:00.777Z,80.9
2023-04-30T01:19:01.737Z,80.9
2023-04-30T01:20:00.788Z,80.9
2023-04-30T01:21:00.636Z,80.9
2023-04-30T01:22:00.590Z,80.9
2023-04-30T01:23:00.701Z,80.9
2023-04-30T01:24:00.573Z,80.9
2023-04-30T01:25:00.586Z,80.9
2023-04-30T01:26:00.574Z,80.9
2023-04-30T01:27:00.581Z,80.9
2023-04-30T01:28:00.579Z,80.9
2023-04-30T01:29:00.605Z,80.9
2023-04-30T01:30:00.773Z,80.9
2023-04-30T01:31:00.600Z,80.9
2023-04-30T01:32:00.616Z,80.9
2023-04-30T01:33:00.636Z,80.9
2023-04-30T01:34:00.575Z,80.9
2023-04-30T01:35:02.948Z,80.9
2023-04-30T01:36:00.563Z,80.9
2023-04-30T01:37:00.601Z,80.9
2023-04-30T01:38:00.597Z,80.9
2023-04-30T01:39:00.589Z,80.9
2023-04-30T01:40:00.686Z,80.9
2023-04-30T01:41:00.634Z,80.9
2023-04-30T01:42:00.581Z,80.6
2023-04-30T01:43:00.608Z,80.5
2023-04-30T01:44:00.584Z,80.6
2023-04-30T01:45:00.649Z,80.3
2023-04-30T01:46:00.620Z,80.3
2023-04-30T01:47:00.630Z,80.3
2023-04-30T01:48:00.718Z,80.6
2023-04-30T01:49:00.701Z,80.6
2023-04-30T01:50:00.723Z,80.6
2023-04-30T01:51:01.675Z,80.6
2023-04-30T01:52:00.645Z,80.6
2023-04-30T01:53:00.596Z,80.6
2023-04-30T01:54:00.601Z,80.6
2023-04-30T01:55:01.867Z,80.6
2023-04-30T01:56:00.602Z,80.6
2023-04-30T01:57:00.616Z,80.6
2023-04-30T01:58:00.632Z,80.6
2023-04-30T01:59:00.629Z,80.3
2023-04-30T02:00:01.098Z,80.3
2023-04-30T02:01:00.877Z,80.3
2023-04-30T02:02:00.967Z,80.6
2023-04-30T02:03:01.029Z,80.6
2023-04-30T02:04:01.074Z,80.6
2023-04-30T02:05:00.870Z,80.6
2023-04-30T02:06:00.910Z,80.9
2023-04-30T02:07:00.862Z,80.9
2023-04-30T02:08:00.858Z,80.6
2023-04-30T02:09:00.911Z,80.6
2023-04-30T02:10:01.082Z,80.3
2023-04-30T02:11:00.880Z,80.6
2023-04-30T02:12:00.882Z,80.6
2023-04-30T02:13:00.857Z,80.3
2023-04-30T02:14:00.880Z,80.6
2023-04-30T02:15:00.868Z,80.9
2023-04-30T02:16:00.924Z,80.6
2023-04-30T02:17:00.910Z,80.9
2023-04-30T02:18:00.910Z,80.9
2023-04-30T02:19:00.920Z,80.9
2023-04-30T02:20:00.969Z,80.6
2023-04-30T02:21:00.863Z,80.6
2023-04-30T02:22:00.904Z,80.6
2023-04-30T02:23:00.877Z,80.9
2023-04-30T02:24:00.869Z,80.9
2023-04-30T02:25:00.973Z,80.9
2023-04-30T02:26:00.911Z,80.9
2023-04-30T02:27:00.881Z,80.2
2023-04-30T02:28:00.869Z,80.6
2023-04-30T02:29:00.869Z,80.9
2023-04-30T02:30:01.005Z,80.6
2023-04-30T02:31:00.869Z,80.6
2023-04-30T02:32:00.885Z,80.9
2023-04-30T02:33:01.101Z,80.9
2023-04-30T02:34:00.906Z,80.9
2023-04-30T02:35:00.878Z,80.9
2023-04-30T02:36:00.901Z,81.5
2023-04-30T02:37:00.882Z,81.2
2023-04-30T02:38:00.877Z,81.5
2023-04-30T02:39:00.895Z,81.2
2023-04-30T02:40:01.023Z,81.2
2023-04-30T02:41:00.902Z,81.2
2023-04-30T02:42:00.879Z,80.9
2023-04-30T02:43:00.905Z,80.9
2023-04-30T02:44:00.907Z,81.2
2023-04-30T02:45:00.890Z,81.2
2023-04-30T02:46:00.941Z,81.2
2023-04-30T02:47:00.976Z,81.2
2023-04-30T02:48:01.032Z,81.5
2023-04-30T02:49:00.897Z,81.5
2023-04-30T02:50:01.006Z,81.5
2023-04-30T02:51:00.967Z,81.5
2023-04-30T02:52:00.905Z,81.8
2023-04-30T02:53:00.954Z,81.5
2023-04-30T02:54:00.910Z,82.1
2023-04-30T02:55:00.898Z,82.1
2023-04-30T02:56:00.999Z,82.1
2023-04-30T02:57:00.906Z,82.1
2023-04-30T02:58:00.921Z,82.1
2023-04-30T02:59:00.897Z,82.1
2023-04-30T03:00:03.074Z,82.1
2023-04-30T03:01:00.968Z,82.1
2023-04-30T03:02:00.896Z,82.1
2023-04-30T03:03:01.063Z,82.1
2023-04-30T03:04:00.903Z,82.1
2023-04-30T03:05:00.921Z,81.8
2023-04-30T03:06:00.980Z,82.1
2023-04-30T03:07:00.920Z,82.1
2023-04-30T03:08:00.903Z,82.1
2023-04-30T03:09:00.949Z,82.1
2023-04-30T03:10:01.056Z,82.1
2023-04-30T03:11:00.932Z,82.1
2023-04-30T03:12:01.647Z,82.1
2023-04-30T03:13:00.914Z,82.1
2023-04-30T03:14:00.933Z,82.1
2023-04-30T03:15:00.934Z,82.1
2023-04-30T03:16:01.107Z,82.1
2023-04-30T03:17:00.962Z,82.1
2023-04-30T03:18:01.008Z,82.1
2023-04-30T03:19:00.981Z,82.1
2023-04-30T03:20:01.599Z,82.1
2023-04-30T03:21:01.206Z,82.1
2023-04-30T03:22:01.104Z,82.1
2023-04-30T03:23:01.098Z,82.1
2023-04-30T03:24:00.931Z,81.8
2023-04-30T03:25:00.960Z,82.1
2023-04-30T03:26:00.955Z,82.1
2023-04-30T03:27:00.959Z,82.1
2023-04-30T03:28:00.998Z,82.1
2023-04-30T03:29:00.936Z,82.1
2023-04-30T03:30:01.257Z,82.1
2023-04-30T03:31:02.029Z,82.4
2023-04-30T03:32:01.082Z,82.4
2023-04-30T03:33:01.000Z,82.7
2023-04-30T03:34:01.016Z,82.7
2023-04-30T03:35:00.984Z,82.4
2023-04-30T03:36:00.952Z,82.7
2023-04-30T03:37:00.943Z,82.4
2023-04-30T03:38:00.945Z,82.4
2023-04-30T03:39:00.943Z,82.7
2023-04-30T03:40:01.103Z,82.7
2023-04-30T03:41:01.111Z,82.4
2023-04-30T03:42:01.009Z,82.7
2023-04-30T03:43:00.983Z,82.7
2023-04-30T03:44:00.980Z,82.4
2023-04-30T03:45:01.001Z,82.7
2023-04-30T03:46:01.021Z,82.7
2023-04-30T03:47:01.074Z,82.4
2023-04-30T03:48:01.022Z,82.7
2023-04-30T03:49:00.971Z,82.7
2023-04-30T03:50:01.208Z,82.7
2023-04-30T03:51:00.993Z,82.4
2023-04-30T03:52:01.029Z,82.7
2023-04-30T03:53:00.977Z,82.7
2023-04-30T03:54:01.004Z,82.7
2023-04-30T03:55:01.037Z,82.7
2023-04-30T03:56:00.999Z,82.4
2023-04-30T03:57:01.014Z,82.4
2023-04-30T03:58:00.998Z,82.7
2023-04-30T03:59:01.081Z,82.7
2023-04-30T04:00:01.164Z,83
2023-04-30T04:01:01.022Z,83
2023-04-30T04:02:01.071Z,83.3
2023-04-30T04:03:01.039Z,83.3
2023-04-30T04:04:01.034Z,83
2023-04-30T04:05:01.006Z,82.7
2023-04-30T04:06:01.059Z,83
2023-04-30T04:07:01.059Z,83
2023-04-30T04:08:01.014Z,83
2023-04-30T04:09:01.086Z,82.7
2023-04-30T04:10:01.101Z,83
2023-04-30T04:11:00.993Z,83.3
2023-04-30T04:12:01.021Z,83.3
2023-04-30T04:13:01.050Z,83
2023-04-30T04:14:01.023Z,83
2023-04-30T04:15:01.086Z,83
2023-04-30T04:16:01.122Z,83
2023-04-30T04:17:01.004Z,82.7
2023-04-30T04:18:01.121Z,82.7
2023-04-30T04:19:01.063Z,82.7
2023-04-30T04:20:01.188Z,82.7
2023-04-30T04:21:01.024Z,82.7
2023-04-30T04:22:01.055Z,82.7
2023-04-30T04:23:01.014Z,82.7
2023-04-30T04:24:01.043Z,82.7
2023-04-30T04:25:01.044Z,82.7
2023-04-30T04:26:01.026Z,83
2023-04-30T04:27:01.096Z,83
2023-04-30T04:28:01.035Z,83
2023-04-30T04:29:01.026Z,83.3
2023-04-30T04:30:01.167Z,83.3
2023-04-30T04:31:01.080Z,83.3
2023-04-30T04:32:01.193Z,82.7
2023-04-30T04:33:01.181Z,83
2023-04-30T04:34:01.052Z,83.3
2023-04-30T04:35:01.039Z,83
2023-04-30T04:36:01.057Z,82.7
2023-04-30T04:37:01.041Z,83
2023-04-30T04:38:01.117Z,83.3
2023-04-30T04:39:01.077Z,83.3
2023-04-30T04:40:01.291Z,83.3
2023-04-30T04:41:01.091Z,82.7
2023-04-30T04:42:02.078Z,83
2023-04-30T04:43:01.076Z,82.7
2023-04-30T04:44:01.096Z,83
2023-04-30T04:45:01.152Z,83.3
2023-04-30T04:46:01.149Z,82.7
2023-04-30T04:47:01.110Z,82.7
2023-04-30T04:48:01.122Z,82.7
2023-04-30T04:49:01.165Z,82.7
2023-04-30T04:50:01.219Z,82.7
2023-04-30T04:51:01.185Z,82.7
2023-04-30T04:52:01.142Z,82.7
2023-04-30T04:53:01.121Z,83
2023-04-30T04:54:01.302Z,83.3
2023-04-30T04:55:01.152Z,83
2023-04-30T04:56:01.164Z,83
2023-04-30T04:57:01.285Z,82.7
2023-04-30T04:58:02.120Z,83
2023-04-30T04:59:01.110Z,82.7
2023-04-30T05:00:01.189Z,82.7
2023-04-30T05:01:01.146Z,82.7
2023-04-30T05:02:01.379Z,82.4
2023-04-30T05:03:01.183Z,82.4
2023-04-30T05:04:01.248Z,82.1
2023-04-30T05:05:01.182Z,82.4
2023-04-30T05:06:01.149Z,82.1
2023-04-30T05:07:01.153Z,82.1
2023-04-30T05:08:01.164Z,82.1
2023-04-30T05:09:01.114Z,82.1
2023-04-30T05:10:01.170Z,82.1
2023-04-30T05:11:01.100Z,82.1
2023-04-30T05:12:01.246Z,82.1
2023-04-30T05:13:01.096Z,82.1
2023-04-30T05:14:01.094Z,82.1
2023-04-30T05:15:01.161Z,82.1
2023-04-30T05:16:01.146Z,82.1
2023-04-30T05:17:01.065Z,82.4
2023-04-30T05:18:01.124Z,82.1
2023-04-30T05:19:01.101Z,81.8
2023-04-30T05:20:01.169Z,81.8
2023-04-30T05:21:01.177Z,81.8
2023-04-30T05:22:01.177Z,82.1
2023-04-30T05:23:01.123Z,82.1
2023-04-30T05:24:01.134Z,81.8
2023-04-30T05:25:01.079Z,82.1
2023-04-30T05:26:01.102Z,81.8
2023-04-30T05:27:01.091Z,82.1
2023-04-30T05:28:01.091Z,82.1
2023-04-30T05:29:01.160Z,81.8
2023-04-30T05:30:01.210Z,82.1
2023-04-30T05:31:01.126Z,82.1
2023-04-30T05:32:01.140Z,81.5
2023-04-30T05:33:01.144Z,81.8
2023-04-30T05:34:01.112Z,81.5
2023-04-30T05:35:01.103Z,81.5
2023-04-30T05:36:01.133Z,81.5
2023-04-30T05:37:01.074Z,81.5
2023-04-30T05:38:01.125Z,81.5
2023-04-30T05:39:01.117Z,81.2
2023-04-30T05:40:01.114Z,81.5
2023-04-30T05:41:01.118Z,81.2
2023-04-30T05:42:01.101Z,81.5
2023-04-30T05:43:01.171Z,81.5
2023-04-30T05:44:01.072Z,80.9
2023-04-30T05:45:01.128Z,80.6
2023-04-30T05:46:01.190Z,80.6
2023-04-30T05:47:01.124Z,80.9
2023-04-30T05:48:01.131Z,80.6
2023-04-30T05:49:01.155Z,80.3
2023-04-30T05:50:01.150Z,80.6
2023-04-30T05:51:00.542Z,80.9
2023-04-30T05:52:00.568Z,80.9
2023-04-30T05:53:00.526Z,80.3
2023-04-30T05:54:00.530Z,80.9
2023-04-30T05:55:00.758Z,80.9
2023-04-30T05:56:00.543Z,80.9
2023-04-30T05:57:00.671Z,80.3
2023-04-30T05:58:00.559Z,80.3
2023-04-30T05:59:00.568Z,80.3
2023-04-30T06:00:01.163Z,80.3
2023-04-30T06:01:00.586Z,80.6
2023-04-30T06:02:00.558Z,80.3
2023-04-30T06:03:00.593Z,79.7
2023-04-30T06:04:00.593Z,79.7
2023-04-30T06:05:00.603Z,80
2023-04-30T06:06:00.597Z,79.7
2023-04-30T06:07:00.542Z,79.7
2023-04-30T06:08:00.593Z,79.7
2023-04-30T06:09:00.556Z,79.7
2023-04-30T06:10:00.729Z,79.4
2023-04-30T06:11:00.628Z,79.1
2023-04-30T06:12:00.552Z,79.1
2023-04-30T06:13:00.619Z,79.4
2023-04-30T06:14:00.598Z,79.4
2023-04-30T06:15:00.630Z,79.1
2023-04-30T06:16:00.571Z,79.8
2023-04-30T06:17:00.725Z,79.1
2023-04-30T06:18:00.686Z,79.1
2023-04-30T06:19:00.559Z,79.1
2023-04-30T06:20:00.782Z,79.1
2023-04-30T06:21:00.564Z,78.8
2023-04-30T06:22:00.671Z,78.8
2023-04-30T06:23:01.536Z,78.5
2023-04-30T06:24:00.608Z,78.2
2023-04-30T06:25:00.598Z,78.5
2023-04-30T06:26:00.572Z,78.2
2023-04-30T06:27:00.564Z,77.9
2023-04-30T06:28:00.571Z,78.2
2023-04-30T06:29:00.598Z,77.9
2023-04-30T06:30:01.289Z,77.3
2023-04-30T06:31:00.606Z,77.3
2023-04-30T06:32:01.608Z,77.3
2023-04-30T06:33:00.641Z,77.3
2023-04-30T06:34:00.576Z,77.3
2023-04-30T06:35:00.596Z,76.6
2023-04-30T06:36:00.590Z,77.3
2023-04-30T06:37:00.588Z,76.6
2023-04-30T06:38:00.605Z,77.3
2023-04-30T06:39:00.660Z,77.3
2023-04-30T06:40:00.765Z,77.3
2023-04-30T06:41:00.578Z,76.9
2023-04-30T06:42:00.588Z,77.3
2023-04-30T06:43:00.589Z,77.6
2023-04-30T06:44:00.598Z,77.3
2023-04-30T06:45:00.651Z,76.7
2023-04-30T06:46:00.792Z,76.7
2023-04-30T06:47:00.587Z,76.4
2023-04-30T06:48:00.656Z,75.7
2023-04-30T06:49:00.605Z,76
2023-04-30T06:50:00.760Z,76.1
2023-04-30T06:51:00.596Z,76.1
2023-04-30T06:52:00.629Z,75.4
2023-04-30T06:53:00.682Z,75.5
2023-04-30T06:54:00.623Z,74.8
2023-04-30T06:55:00.620Z,74.8
2023-04-30T06:56:00.648Z,75.5
2023-04-30T06:57:00.598Z,76.1
2023-04-30T06:58:00.659Z,75.8
2023-04-30T06:59:00.836Z,74.9
2023-04-30T07:00:02.480Z,74.2
2023-04-30T07:01:00.735Z,74.2
2023-04-30T07:02:00.811Z,74.2
2023-04-30T07:03:00.669Z,74.9
2023-04-30T07:04:00.668Z,73.6
2023-04-30T07:05:00.639Z,73.6
2023-04-30T07:06:00.670Z,73.9
2023-04-30T07:07:00.629Z,74.3
2023-04-30T07:08:00.633Z,73.6
2023-04-30T07:09:00.633Z,73
2023-04-30T07:10:00.798Z,73.6
2023-04-30T07:11:00.613Z,73.6
2023-04-30T07:12:00.617Z,73.3
2023-04-30T07:13:00.618Z,73.3
2023-04-30T07:14:00.633Z,73
2023-04-30T07:15:00.653Z,73
2023-04-30T07:16:00.662Z,73.6
2023-04-30T07:17:00.631Z,73.3
2023-04-30T07:18:00.854Z,73
2023-04-30T07:19:00.628Z,73
2023-04-30T07:20:00.737Z,72.4
2023-04-30T07:21:00.609Z,72.4
2023-04-30T07:22:00.629Z,72.7
2023-04-30T07:23:00.629Z,72.4
2023-04-30T07:24:00.624Z,71.8
2023-04-30T07:25:02.190Z,71.8
2023-04-30T07:26:00.629Z,72.1
2023-04-30T07:27:00.632Z,72.4
2023-04-30T07:28:00.652Z,71.5
2023-04-30T07:29:00.662Z,71.8
2023-04-30T07:30:00.789Z,71.5
2023-04-30T07:31:00.635Z,71.2
2023-04-30T07:32:00.790Z,71.8
2023-04-30T07:33:00.779Z,71.2
2023-04-30T07:34:00.833Z,71.2
2023-04-30T07:35:00.715Z,71.2
2023-04-30T07:36:00.678Z,70.6
2023-04-30T07:37:00.708Z,70.6
2023-04-30T07:38:00.753Z,70
2023-04-30T07:39:00.707Z,69.3
2023-04-30T07:40:00.851Z,69.9
2023-04-30T07:41:00.669Z,70.6
2023-04-30T07:42:00.692Z,69.3
2023-04-30T07:43:00.722Z,69.3
2023-04-30T07:44:00.696Z,70
2023-04-30T07:45:00.707Z,70.6
2023-04-30T07:46:00.823Z,69.7
2023-04-30T07:47:00.791Z,69.4
2023-04-30T07:48:00.778Z,69.4
2023-04-30T07:49:00.694Z,69.4
2023-04-30T07:50:01.116Z,68.8
2023-04-30T07:51:00.724Z,69.1
2023-04-30T07:52:00.674Z,68.2
2023-04-30T07:53:00.740Z,66.9
2023-04-30T07:54:00.672Z,68.2
2023-04-30T07:55:00.773Z,68.5
2023-04-30T07:56:00.965Z,68.5
2023-04-30T07:57:00.657Z,68.2
2023-04-30T07:58:00.695Z,67.6
2023-04-30T07:59:00.685Z,68.8
2023-04-30T08:00:02.401Z,66.3
2023-04-30T08:01:00.662Z,66.3
2023-04-30T08:02:00.674Z,67.3
2023-04-30T08:03:01.015Z,66.9
2023-04-30T08:04:00.934Z,67.6
2023-04-30T08:05:00.686Z,67.9
2023-04-30T08:06:00.783Z,68.8
2023-04-30T08:07:00.687Z,67.6
2023-04-30T08:08:00.700Z,67.6
2023-04-30T08:09:00.692Z,65.7
2023-04-30T08:10:00.802Z,65.7
2023-04-30T08:11:00.709Z,65.1
2023-04-30T08:12:00.670Z,66.3
2023-04-30T08:13:00.676Z,66.3
2023-04-30T08:14:00.712Z,66.7
2023-04-30T08:15:00.720Z,65.7
2023-04-30T08:16:00.802Z,65.1
2023-04-30T08:17:00.825Z,64.5
2023-04-30T08:18:00.778Z,65.1
2023-04-30T08:19:00.719Z,64.2
2023-04-30T08:20:00.862Z,64.2
2023-04-30T08:21:00.688Z,63.9
2023-04-30T08:22:00.852Z,64.5
2023-04-30T08:23:00.679Z,63.8
2023-04-30T08:24:00.712Z,63.5
2023-04-30T08:25:00.690Z,65.1
2023-04-30T08:26:00.719Z,64.5
2023-04-30T08:27:00.749Z,64.5
2023-04-30T08:28:00.762Z,65.1
2023-04-30T08:29:00.815Z,63.9
2023-04-30T08:30:00.837Z,63.9
2023-04-30T08:31:01.745Z,64.2
2023-04-30T08:32:00.765Z,63.3
2023-04-30T08:33:00.796Z,63.9
2023-04-30T08:34:00.711Z,63
2023-04-30T08:35:00.737Z,63.6
2023-04-30T08:36:00.834Z,62.6
2023-04-30T08:37:00.813Z,62.6
2023-04-30T08:38:00.996Z,62.9
2023-04-30T08:39:00.874Z,62
2023-04-30T08:40:01.259Z,62.6
2023-04-30T08:41:00.880Z,63.8
2023-04-30T08:42:01.021Z,65.1
2023-04-30T08:43:00.998Z,63.9
2023-04-30T08:44:01.114Z,63.3
2023-04-30T08:45:00.965Z,62.6
2023-04-30T08:46:01.105Z,63.3
2023-04-30T08:47:00.948Z,64.2
2023-04-30T08:48:01.049Z,64.6
2023-04-30T08:49:00.921Z,63.6
2023-04-30T08:50:01.274Z,61.7
2023-04-30T08:51:00.944Z,62.7
2023-04-30T08:52:02.116Z,62.6
2023-04-30T08:53:00.938Z,62.6
2023-04-30T08:54:01.100Z,62
2023-04-30T08:55:01.131Z,61.7
2023-04-30T08:56:01.006Z,62
2023-04-30T08:57:00.975Z,62.6
2023-04-30T08:58:00.937Z,63.2
2023-04-30T08:59:00.971Z,63.6
2023-04-30T09:00:03.261Z,63.2
2023-04-30T09:01:01.888Z,64.5
2023-04-30T09:02:00.826Z,62
2023-04-30T09:03:00.913Z,62
2023-04-30T09:04:00.837Z,61.7
2023-04-30T09:05:00.801Z,62.6
2023-04-30T09:06:01.057Z,62.6
2023-04-30T09:07:02.327Z,62.7
2023-04-30T09:08:04.028Z,61.7
2023-04-30T09:09:00.796Z,61.4
2023-04-30T09:10:01.173Z,62.7
2023-04-30T09:11:00.766Z,62.7
2023-04-30T09:12:00.790Z,61.8
2023-04-30T09:13:00.819Z,62.1
2023-04-30T09:14:00.843Z,62.1
2023-04-30T09:15:00.782Z,60.2
2023-04-30T09:16:00.811Z,60.6
2023-04-30T09:17:00.762Z,60.9
2023-04-30T09:18:00.827Z,58.7
2023-04-30T09:19:00.775Z,59.9
2023-04-30T09:20:00.886Z,60.3
2023-04-30T09:21:00.800Z,59.6
2023-04-30T09:22:00.797Z,60.6
2023-04-30T09:23:00.783Z,59.7
2023-04-30T09:24:00.795Z,59.7
2023-04-30T09:25:00.986Z,57.5
2023-04-30T09:26:00.900Z,58.7
2023-04-30T09:27:00.813Z,58.1
2023-04-30T09:28:00.809Z,58.4
2023-04-30T09:29:00.809Z,59.1
2023-04-30T09:30:00.928Z,59.1
2023-04-30T09:31:00.947Z,59.7
2023-04-30T09:32:00.894Z,58.4
2023-04-30T09:33:00.886Z,57.5
2023-04-30T09:34:00.823Z,55.9
2023-04-30T09:35:00.850Z,57.8
2023-04-30T09:36:00.828Z,57.5
2023-04-30T09:37:00.784Z,57.1
2023-04-30T09:38:00.832Z,57.1
2023-04-30T09:39:00.796Z,57.8
2023-04-30T09:40:00.869Z,57.8
2023-04-30T09:41:00.826Z,57.5
2023-04-30T09:42:00.850Z,57.1
2023-04-30T09:43:00.823Z,57.4
2023-04-30T09:44:00.835Z,56.2
2023-04-30T09:45:00.879Z,57.8
2023-04-30T09:46:00.862Z,56.5
2023-04-30T09:47:00.825Z,57.1
2023-04-30T09:48:15.806Z,57.4
2023-04-30T09:49:00.859Z,56.5
2023-04-30T09:50:00.870Z,57.1
2023-04-30T09:51:00.857Z,57.1
2023-04-30T09:52:00.812Z,57.1
2023-04-30T09:53:00.888Z,57.1
2023-04-30T09:54:00.880Z,57.8
2023-04-30T09:55:00.859Z,59
2023-04-30T09:56:00.838Z,56.2
2023-04-30T09:57:00.858Z,54.6
2023-04-30T09:58:00.944Z,55.2
2023-04-30T09:59:00.830Z,56.5
2023-04-30T10:00:01.383Z,56.2
2023-04-30T10:01:00.910Z,55.9
2023-04-30T10:02:00.849Z,56.5
2023-04-30T10:03:00.945Z,57.2
2023-04-30T10:04:00.901Z,55.9
2023-04-30T10:05:01.951Z,56.6
2023-04-30T10:06:00.851Z,56.6
2023-04-30T10:07:00.893Z,56.6
2023-04-30T10:08:00.832Z,55.3
2023-04-30T10:09:00.851Z,55
2023-04-30T10:10:00.900Z,54
2023-04-30T10:11:00.830Z,52.7
2023-04-30T10:12:00.831Z,54.6
2023-04-30T10:13:00.829Z,55.3
2023-04-30T10:14:00.910Z,56.2
2023-04-30T10:15:00.845Z,55.9
2023-04-30T10:16:00.853Z,54.7
2023-04-30T10:17:00.950Z,53.4
2023-04-30T10:18:01.011Z,54.7
2023-04-30T10:19:01.760Z,53.4
2023-04-30T10:20:00.893Z,52.1
2023-04-30T10:21:00.849Z,53.4
2023-04-30T10:22:00.863Z,54
2023-04-30T10:23:00.846Z,53.4
2023-04-30T10:24:00.871Z,54.7
2023-04-30T10:25:01.010Z,54.7
2023-04-30T10:26:00.914Z,52.1
2023-04-30T10:27:00.815Z,52.1
2023-04-30T10:28:02.593Z,51.5
2023-04-30T10:29:00.819Z,52.7
2023-04-30T10:30:01.019Z,51.5
2023-04-30T10:31:02.021Z,52.7
2023-04-30T10:32:00.897Z,52.1
2023-04-30T10:33:00.927Z,53.4
2023-04-30T10:34:00.820Z,54
2023-04-30T10:35:00.849Z,54.7
2023-04-30T10:36:00.813Z,52.5
2023-04-30T10:37:00.815Z,53.4
2023-04-30T10:38:00.846Z,52.8
2023-04-30T10:39:00.876Z,52.8
2023-04-30T10:40:00.880Z,52.5
2023-04-30T10:41:00.824Z,53.1
2023-04-30T10:42:00.991Z,52.8
2023-04-30T10:43:00.830Z,51.2
2023-04-30T10:44:01.989Z,52.2
2023-04-30T10:45:00.830Z,54.1
2023-04-30T10:46:01.037Z,53.2
2023-04-30T10:47:00.875Z,50.9
2023-04-30T10:48:00.886Z,50.6
2023-04-30T10:49:00.837Z,51.9
2023-04-30T10:50:00.840Z,50.3
2023-04-30T10:51:00.839Z,51.3
2023-04-30T10:52:00.849Z,50.3
2023-04-30T10:53:01.986Z,50
2023-04-30T10:54:00.844Z,48.4
2023-04-30T10:55:00.835Z,50.3
2023-04-30T10:56:01.126Z,49.7
2023-04-30T10:57:00.957Z,48.7
2023-04-30T10:58:00.902Z,48.1
2023-04-30T10:59:00.874Z,48.4
2023-04-30T11:00:00.943Z,49
2023-04-30T11:01:00.994Z,50.3
2023-04-30T11:02:01.252Z,49
2023-04-30T11:03:01.224Z,48.4
2023-04-30T11:04:01.003Z,48.4
2023-04-30T11:05:00.992Z,48
2023-04-30T11:06:00.968Z,50.3
2023-04-30T11:07:00.945Z,48.4
2023-04-30T11:08:00.918Z,51.6
2023-04-30T11:09:00.884Z,48.4
2023-04-30T11:10:00.879Z,48.7
2023-04-30T11:11:00.887Z,49
2023-04-30T11:12:00.874Z,48.4
2023-04-30T11:13:01.760Z,49.7
2023-04-30T11:14:00.895Z,48.7
2023-04-30T11:15:01.048Z,47.1
2023-04-30T11:16:01.171Z,47.7
2023-04-30T11:17:01.028Z,47.1
2023-04-30T11:18:01.403Z,47.1
2023-04-30T11:19:01.088Z,49
2023-04-30T11:20:01.298Z,49.4
2023-04-30T11:21:01.140Z,49.4
2023-04-30T11:22:01.109Z,50.4
2023-04-30T11:23:01.190Z,49.7
2023-04-30T11:24:01.109Z,47.8
2023-04-30T11:25:01.180Z,47.2
2023-04-30T11:26:01.174Z,46.9
2023-04-30T11:27:01.058Z,45.6
2023-04-30T11:28:01.145Z,45.9
2023-04-30T11:29:01.127Z,48.1
2023-04-30T11:30:01.283Z,47.5
2023-04-30T11:31:01.184Z,48.4
2023-04-30T11:32:01.095Z,48.5
2023-04-30T11:33:01.020Z,47.5
2023-04-30T11:34:01.019Z,47.2
2023-04-30T11:35:00.937Z,46.5
2023-04-30T11:36:00.916Z,48.5
2023-04-30T11:37:00.906Z,47.8
2023-04-30T11:38:00.904Z,47.8
2023-04-30T11:39:00.920Z,47.8
2023-04-30T11:40:00.918Z,44.9
2023-04-30T11:41:00.889Z,46.8
2023-04-30T11:42:00.887Z,47.8
2023-04-30T11:43:00.916Z,49.7
2023-04-30T11:44:00.893Z,48.4
2023-04-30T11:45:00.891Z,49.1
2023-04-30T11:46:00.891Z,49.4
2023-04-30T11:47:01.007Z,49.1
2023-04-30T11:48:00.971Z,49.1
2023-04-30T11:49:00.913Z,49.1
2023-04-30T11:50:00.908Z,49.8
2023-04-30T11:51:00.904Z,49.8
2023-04-30T11:52:00.953Z,47.5
2023-04-30T11:53:00.827Z,45.3
2023-04-30T11:54:00.809Z,46.9
2023-04-30T11:55:00.791Z,46.6
2023-04-30T11:56:00.752Z,45.9
2023-04-30T11:57:00.709Z,47.2
2023-04-30T11:58:00.672Z,46.9
2023-04-30T11:59:00.660Z,46.6
2023-04-30T12:00:00.614Z,46.6
2023-04-30T12:01:00.628Z,45.6
2023-04-30T12:02:00.616Z,46.9
2023-04-30T12:03:00.910Z,44.7
2023-04-30T12:04:00.647Z,45.3
2023-04-30T12:05:00.533Z,47.8
2023-04-30T12:06:00.658Z,47.2
2023-04-30T12:07:00.528Z,47.2
2023-04-30T12:08:00.532Z,45.3
2023-04-30T12:09:00.506Z,47.9
2023-04-30T12:10:00.558Z,47.2
2023-04-30T12:11:00.508Z,47.5
2023-04-30T12:12:00.502Z,45
2023-04-30T12:13:00.500Z,45.3
2023-04-30T12:14:00.498Z,44
2023-04-30T12:15:00.499Z,45.6
2023-04-30T12:16:00.552Z,46.2
2023-04-30T12:17:00.549Z,47.9
2023-04-30T12:18:00.557Z,48.5
2023-04-30T12:19:00.548Z,48.5
2023-04-30T12:20:00.505Z,47.9
2023-04-30T12:21:00.514Z,46.6
2023-04-30T12:22:00.624Z,46.6
2023-04-30T12:23:00.502Z,45.6
2023-04-30T12:24:03.211Z,45.6
2023-04-30T12:25:00.499Z,46
2023-04-30T12:26:00.500Z,46
2023-04-30T12:27:00.527Z,44.7
2023-04-30T12:28:00.528Z,45
2023-04-30T12:29:00.513Z,45.3
2023-04-30T12:30:00.519Z,45.3
2023-04-30T12:31:00.564Z,44.7
2023-04-30T12:32:00.680Z,46
2023-04-30T12:33:00.682Z,45
2023-04-30T12:34:00.510Z,43.7
2023-04-30T12:35:00.545Z,42.8
2023-04-30T12:36:00.506Z,44.7
2023-04-30T12:37:00.540Z,43.4
2023-04-30T12:38:00.702Z,43.4
2023-04-30T12:39:00.528Z,43.4
2023-04-30T12:40:00.570Z,46.6
2023-04-30T12:41:02.032Z,45.4
2023-04-30T12:42:00.517Z,44.7
2023-04-30T12:43:00.516Z,43.4
2023-04-30T12:44:00.517Z,44.7
2023-04-30T12:45:00.594Z,45.4
2023-04-30T12:46:00.584Z,46
2023-04-30T12:47:00.554Z,45.4
2023-04-30T12:48:00.583Z,44.7
2023-04-30T12:49:00.521Z,44.4
2023-04-30T12:50:00.542Z,44.7
2023-04-30T12:51:00.533Z,44.7
2023-04-30T12:52:00.545Z,44.4
2023-04-30T12:53:00.559Z,43.8
2023-04-30T12:54:00.626Z,42.8
2023-04-30T12:55:00.530Z,44.7
2023-04-30T12:56:00.568Z,44.1
2023-04-30T12:57:00.556Z,43.5
2023-04-30T12:58:00.532Z,43.8
2023-04-30T12:59:00.538Z,44.1
2023-04-30T13:00:00.610Z,44.4
2023-04-30T13:01:00.588Z,43.1
2023-04-30T13:02:00.621Z,43.4
2023-04-30T13:03:00.675Z,44.7
2023-04-30T13:04:00.678Z,44.1
2023-04-30T13:05:00.545Z,44.4
2023-04-30T13:06:00.700Z,43.4
2023-04-30T13:07:00.604Z,44.4
2023-04-30T13:08:00.573Z,44.7
2023-04-30T13:09:00.587Z,45.3
2023-04-30T13:10:00.748Z,46
2023-04-30T13:11:00.568Z,44
2023-04-30T13:12:00.556Z,44
2023-04-30T13:13:00.563Z,43.4
2023-04-30T13:14:00.549Z,44.4
2023-04-30T13:15:00.561Z,46
2023-04-30T13:16:00.653Z,43.7
2023-04-30T13:17:00.626Z,43.4
2023-04-30T13:18:00.596Z,44
2023-04-30T13:19:00.551Z,42.1
2023-04-30T13:20:00.564Z,45
2023-04-30T13:21:00.568Z,46.6
2023-04-30T13:22:00.598Z,44.7
2023-04-30T13:23:00.554Z,43.4